Terminal Aerodrome Forecast
Issued by NWS

Home | Current Version | Previous Version | Text Only | Print | Product List | Glossary On
Versions: 1 2 3 4 5 6 7 8 9 10 11 12 13 14 15 16 17 18 19 20 21 22 23 24 25 26 27 28 29 30 31 32 33 34 35 36 37 38 39 40 41 42 43 44 45 46 47
000
FTAK31 PANC 221158 AAA
TAFAAQ
TAF AMD
PAAQ 221158Z 2212/2312 01011KT 6SM -SHSN SCT025 OVC045
      TEMPO 2212/2214 2SM -SN BR OVC025
     FM221400 01011KT 2SM -SN BR SCT008 OVC015
     FM222000 34006KT 6SM -SHSN SCT015 OVC035
     FM222200 VRB04KT P6SM SCT035 BKN060=

USA.gov is the U.S. government's official web portal to all federal, state and local government web resources and services.